Time;durP1;ratioP1;P1;durP2;ratioP2;P2;SDS_P1;SDS_P2;PMS_P1;PMS_P2;Temp;Humidity;BMP_temperature;BMP_pressure;BME280_temperature;BME280_humidity;BME280_pressure;Samples;Min_cycle;Max_cycle;Signal;HPM_P1;HPM_P2
2023/10/27 00:00:49;;;;;;;17.20;14.00;;;;;;;;;;5050009;28;20036;-71
2023/10/27 00:03:14;;;;;;;17.27;14.40;;;;;;;;;;5052206;28;20108;-67
2023/10/27 00:05:40;;;;;;;18.10;14.35;;;;;;;;;;5049059;28;20067;-69
2023/10/27 00:08:05;;;;;;;16.80;13.77;;;;;;;;;;5049709;28;20067;-68
2023/10/27 00:10:31;;;;;;;15.25;13.88;;;;;;;;;;5048368;28;20056;-72
2023/10/27 00:12:57;;;;;;;18.55;15.13;;;;;;;;;;5053915;28;20150;-69
2023/10/27 00:15:23;;;;;;;19.63;15.65;;;;;;;;;;5047967;28;20033;-69
2023/10/27 00:17:48;;;;;;;16.08;14.57;;;;;;;;;;5048257;28;20032;-68
2023/10/27 00:20:15;;;;;;;20.02;14.73;;;;;;;;;;5051992;28;20478;-69
2023/10/27 00:22:40;;;;;;;18.55;15.13;;;;;;;;;;5050602;28;20600;-71
2023/10/27 00:25:06;;;;;;;18.17;14.15;;;;;;;;;;5047926;28;20040;-69
2023/10/27 00:27:32;;;;;;;17.27;15.30;;;;;;;;;;5053861;28;20033;-70
2023/10/27 00:29:57;;;;;;;19.77;15.48;;;;;;;;;;5053346;28;20047;-69
2023/10/27 00:32:23;;;;;;;17.30;14.90;;;;;;;;;;5046192;28;20068;-70
2023/10/27 00:34:49;;;;;;;16.88;15.32;;;;;;;;;;5034582;28;20131;-70
2023/10/27 00:37:14;;;;;;;16.50;14.90;;;;;;;;;;5045562;28;20037;-69
2023/10/27 00:39:40;;;;;;;18.02;15.82;;;;;;;;;;5041853;28;20066;-68
2023/10/27 00:42:06;;;;;;;15.15;13.70;;;;;;;;;;5030812;28;20041;-72
2023/10/27 00:44:32;;;;;;;15.45;14.18;;;;;;;;;;5050888;28;20036;-71
2023/10/27 00:46:58;;;;;;;14.63;13.32;;;;;;;;;;5038572;28;20044;-72
2023/10/27 00:49:24;;;;;;;14.95;13.60;;;;;;;;;;5047217;28;20038;-68
2023/10/27 00:51:50;;;;;;;15.45;13.82;;;;;;;;;;5043315;28;20024;-72
2023/10/27 00:54:18;;;;;;;14.73;13.50;;;;;;;;;;5034871;28;20036;-69
2023/10/27 00:56:44;;;;;;;14.77;12.10;;;;;;;;;;5023874;28;20108;-71
2023/10/27 00:59:12;;;;;;;14.30;13.00;;;;;;;;;;5047907;28;20041;-72
2023/10/27 01:01:38;;;;;;;13.88;12.50;;;;;;;;;;5044118;28;20033;-70
2023/10/27 01:04:04;;;;;;;13.85;11.50;;;;;;;;;;5038494;28;20538;-68
2023/10/27 01:06:30;;;;;;;13.57;11.60;;;;;;;;;;5047116;28;20048;-68
2023/10/27 01:08:55;;;;;;;12.80;11.60;;;;;;;;;;5029344;28;20032;-68
2023/10/27 01:11:21;;;;;;;13.77;11.73;;;;;;;;;;5038736;28;20063;-69
2023/10/27 01:13:54;;;;;;;12.57;11.63;;;;;;;;;;5026427;28;20179;-72
2023/10/27 01:16:23;;;;;;;12.20;11.23;;;;;;;;;;5027166;28;20056;-69
2023/10/27 01:18:48;;;;;;;11.55;10.75;;;;;;;;;;5052806;28;20047;-70
2023/10/27 01:21:14;;;;;;;11.93;10.75;;;;;;;;;;5034764;28;20029;-70
2023/10/27 01:23:39;;;;;;;12.63;11.52;;;;;;;;;;5031907;28;20025;-67
2023/10/27 01:26:05;;;;;;;12.10;10.95;;;;;;;;;;5035820;28;20113;-70
2023/10/27 01:28:31;;;;;;;13.07;11.88;;;;;;;;;;5050319;28;20036;-68
2023/10/27 01:30:57;;;;;;;11.65;10.82;;;;;;;;;;5044050;28;20029;-69
2023/10/27 01:33:25;;;;;;;11.75;10.93;;;;;;;;;;5037607;28;20082;-71
2023/10/27 01:35:52;;;;;;;13.63;12.45;;;;;;;;;;5039279;28;20400;-69
2023/10/27 01:38:19;;;;;;;13.68;11.52;;;;;;;;;;5044888;28;20375;-70
2023/10/27 01:40:46;;;;;;;14.48;12.45;;;;;;;;;;5037751;28;20392;-68
2023/10/27 01:43:11;;;;;;;12.90;11.57;;;;;;;;;;5049455;28;20043;-68
2023/10/27 01:45:37;;;;;;;12.32;11.25;;;;;;;;;;5038339;28;20032;-68
2023/10/27 01:48:03;;;;;;;11.63;10.77;;;;;;;;;;5040204;28;20036;-68
2023/10/27 01:50:28;;;;;;;11.40;10.60;;;;;;;;;;5043715;28;20679;-70
2023/10/27 01:52:54;;;;;;;12.30;11.20;;;;;;;;;;5052541;28;20034;-68
2023/10/27 01:55:19;;;;;;;12.48;11.10;;;;;;;;;;5041969;28;20032;-67
2023/10/27 01:57:45;;;;;;;12.95;11.88;;;;;;;;;;5035768;28;20036;-69
2023/10/27 02:00:11;;;;;;;13.25;12.02;;;;;;;;;;5050262;28;21526;-67
2023/10/27 02:02:40;;;;;;;12.60;11.40;;;;;;;;;;5022363;28;20033;-70
2023/10/27 02:05:06;;;;;;;12.85;11.55;;;;;;;;;;5028875;28;20043;-70
2023/10/27 02:07:33;;;;;;;13.57;12.13;;;;;;;;;;5031991;28;20084;-69
2023/10/27 02:10:01;;;;;;;11.98;11.18;;;;;;;;;;5030311;28;20696;-69
2023/10/27 02:12:28;;;;;;;12.73;11.82;;;;;;;;;;5035574;28;20104;-69
2023/10/27 02:14:54;;;;;;;12.07;11.20;;;;;;;;;;5036761;28;20703;-68
2023/10/27 02:17:19;;;;;;;11.68;10.75;;;;;;;;;;5030519;28;20520;-70
2023/10/27 02:19:45;;;;;;;11.70;10.93;;;;;;;;;;5032520;28;20044;-67
2023/10/27 02:22:11;;;;;;;11.85;11.02;;;;;;;;;;5036820;28;20036;-67
2023/10/27 02:24:43;;;;;;;12.20;11.25;;;;;;;;;;5036744;28;20390;-72
2023/10/27 02:27:08;;;;;;;12.55;11.52;;;;;;;;;;5036085;28;20824;-69
2023/10/27 02:29:34;;;;;;;12.52;11.30;;;;;;;;;;5033305;28;20143;-67
2023/10/27 02:31:59;;;;;;;12.35;11.45;;;;;;;;;;5035245;28;20033;-70
2023/10/27 02:34:25;;;;;;;12.05;11.35;;;;;;;;;;5036633;28;20408;-70
2023/10/27 02:36:50;;;;;;;12.90;11.75;;;;;;;;;;5044033;28;20051;-68
2023/10/27 02:39:16;;;;;;;12.40;11.55;;;;;;;;;;5032133;28;20109;-69
2023/10/27 02:41:42;;;;;;;12.27;11.27;;;;;;;;;;5031845;28;20110;-69
2023/10/27 02:44:09;;;;;;;13.32;11.95;;;;;;;;;;5033400;28;20713;-68
2023/10/27 02:46:35;;;;;;;13.82;11.63;;;;;;;;;;5044334;28;20028;-68
2023/10/27 02:49:03;;;;;;;11.70;10.80;;;;;;;;;;5028189;28;20502;-70
2023/10/27 02:51:28;;;;;;;12.30;11.07;;;;;;;;;;5034962;28;20024;-69
2023/10/27 02:53:54;;;;;;;13.38;10.88;;;;;;;;;;5034017;28;20040;-71
2023/10/27 02:56:20;;;;;;;12.18;11.30;;;;;;;;;;5049188;28;20052;-68
2023/10/27 02:58:46;;;;;;;11.77;11.07;;;;;;;;;;5041683;28;20037;-67
2023/10/27 03:01:15;;;;;;;11.77;10.82;;;;;;;;;;5030002;28;20037;-68
2023/10/27 03:03:41;;;;;;;11.95;10.68;;;;;;;;;;5035632;28;20043;-69
2023/10/27 03:06:07;;;;;;;11.68;10.77;;;;;;;;;;5031088;28;20436;-67
2023/10/27 03:08:33;;;;;;;12.57;11.43;;;;;;;;;;5032665;28;20113;-70
2023/10/27 03:10:59;;;;;;;12.95;11.75;;;;;;;;;;5031293;28;20032;-68
2023/10/27 03:13:26;;;;;;;13.40;12.18;;;;;;;;;;5045445;28;20033;-68
2023/10/27 03:15:53;;;;;;;12.07;11.25;;;;;;;;;;5049022;28;20047;-67
2023/10/27 03:18:19;;;;;;;12.15;11.20;;;;;;;;;;5032352;28;20029;-68
2023/10/27 03:20:45;;;;;;;12.30;11.25;;;;;;;;;;5039534;28;20044;-71
2023/10/27 03:23:10;;;;;;;12.30;11.30;;;;;;;;;;5028731;28;20470;-68
2023/10/27 03:25:36;;;;;;;12.63;11.48;;;;;;;;;;5037861;28;20036;-67
2023/10/27 03:28:01;;;;;;;12.32;11.43;;;;;;;;;;5035411;28;20054;-67
2023/10/27 03:30:28;;;;;;;12.23;11.32;;;;;;;;;;5045240;28;20032;-68
2023/10/27 03:32:54;;;;;;;12.43;11.43;;;;;;;;;;5051219;28;20482;-66
2023/10/27 03:35:20;;;;;;;11.85;11.00;;;;;;;;;;5057516;28;20032;-69
2023/10/27 03:37:45;;;;;;;12.82;11.90;;;;;;;;;;5047983;28;20102;-67
2023/10/27 03:40:11;;;;;;;12.30;11.30;;;;;;;;;;5046608;28;20044;-68
2023/10/27 03:42:37;;;;;;;11.90;10.80;;;;;;;;;;5040467;28;20067;-68
2023/10/27 03:45:03;;;;;;;12.35;10.98;;;;;;;;;;5039757;28;20518;-67
2023/10/27 03:47:29;;;;;;;12.18;11.27;;;;;;;;;;5044331;28;20064;-69
2023/10/27 03:49:55;;;;;;;12.70;11.77;;;;;;;;;;5038768;28;20056;-69
2023/10/27 03:52:20;;;;;;;12.05;11.13;;;;;;;;;;5041157;28;20170;-70
2023/10/27 03:54:46;;;;;;;12.10;11.20;;;;;;;;;;5058312;28;20039;-67
2023/10/27 03:57:11;;;;;;;11.13;10.45;;;;;;;;;;5053993;28;20075;-69
2023/10/27 03:59:37;;;;;;;11.77;10.85;;;;;;;;;;5046958;28;20123;-68
2023/10/27 04:02:02;;;;;;;11.50;10.80;;;;;;;;;;5042374;28;20044;-72
2023/10/27 04:04:28;;;;;;;13.07;11.90;;;;;;;;;;5044865;28;20071;-68
2023/10/27 04:06:54;;;;;;;12.90;11.80;;;;;;;;;;5051411;28;20068;-70
2023/10/27 04:09:21;;;;;;;12.07;11.23;;;;;;;;;;5048586;28;20032;-69
2023/10/27 04:11:47;;;;;;;12.27;11.30;;;;;;;;;;5046473;28;20035;-72
2023/10/27 04:14:12;;;;;;;12.27;11.55;;;;;;;;;;5048307;28;20120;-68
2023/10/27 04:16:38;;;;;;;11.98;10.90;;;;;;;;;;5046353;28;20036;-71
2023/10/27 04:19:04;;;;;;;12.15;11.32;;;;;;;;;;5047253;28;20069;-71
2023/10/27 04:21:29;;;;;;;11.95;10.93;;;;;;;;;;5048911;28;20037;-69
2023/10/27 04:23:56;;;;;;;12.20;11.35;;;;;;;;;;5045353;28;20124;-72
2023/10/27 04:26:21;;;;;;;12.18;11.23;;;;;;;;;;5049144;28;20033;-68
2023/10/27 04:28:47;;;;;;;12.40;11.40;;;;;;;;;;5049559;28;20032;-70
2023/10/27 04:31:12;;;;;;;12.85;11.73;;;;;;;;;;5039730;28;20065;-67
2023/10/27 04:33:38;;;;;;;12.45;11.55;;;;;;;;;;5052611;28;20043;-73
2023/10/27 04:36:07;;;;;;;12.23;11.20;;;;;;;;;;5052739;28;20032;-68
2023/10/27 04:38:32;;;;;;;12.25;11.48;;;;;;;;;;5046277;28;20043;-70
2023/10/27 04:40:58;;;;;;;12.20;11.30;;;;;;;;;;5043994;28;20021;-71
2023/10/27 04:43:24;;;;;;;12.48;11.48;;;;;;;;;;5048129;28;20127;-71
2023/10/27 04:45:49;;;;;;;12.95;11.95;;;;;;;;;;5044239;28;20076;-72
2023/10/27 04:48:15;;;;;;;12.00;11.20;;;;;;;;;;5032456;28;20044;-67
2023/10/27 04:50:41;;;;;;;12.10;11.20;;;;;;;;;;5050990;28;20086;-68
2023/10/27 04:53:07;;;;;;;12.27;11.48;;;;;;;;;;5044890;28;20029;-68
2023/10/27 04:55:33;;;;;;;12.93;12.02;;;;;;;;;;5054344;28;20044;-72
2023/10/27 04:57:58;;;;;;;11.85;10.95;;;;;;;;;;5048672;28;20463;-71
2023/10/27 05:00:24;;;;;;;12.38;11.57;;;;;;;;;;5055829;28;20028;-69
2023/10/27 05:02:53;;;;;;;12.30;11.15;;;;;;;;;;5049582;28;20037;-69
2023/10/27 05:05:20;;;;;;;12.13;11.35;;;;;;;;;;5024286;28;20076;-70
2023/10/27 05:07:47;;;;;;;13.13;11.90;;;;;;;;;;5045438;28;20044;-70
2023/10/27 05:10:13;;;;;;;13.75;12.52;;;;;;;;;;5052272;28;20029;-68
2023/10/27 05:12:38;;;;;;;21.95;19.00;;;;;;;;;;5046635;28;20099;-68
2023/10/27 05:15:05;;;;;;;14.68;13.43;;;;;;;;;;5052550;28;20041;-69
2023/10/27 05:17:34;;;;;;;14.20;13.00;;;;;;;;;;5043388;28;20074;-72
2023/10/27 05:20:01;;;;;;;14.70;13.70;;;;;;;;;;5046237;28;20061;-70
2023/10/27 05:22:26;;;;;;;13.80;12.48;;;;;;;;;;5050626;28;20052;-72
2023/10/27 05:24:52;;;;;;;12.63;11.63;;;;;;;;;;5050099;28;20227;-69
2023/10/27 05:27:17;;;;;;;13.07;11.88;;;;;;;;;;5044732;28;20151;-70
2023/10/27 05:29:43;;;;;;;12.85;11.65;;;;;;;;;;5047795;28;20420;-70
2023/10/27 05:32:12;;;;;;;12.77;11.75;;;;;;;;;;5041718;28;20098;-72
2023/10/27 05:34:38;;;;;;;14.43;13.32;;;;;;;;;;5046705;28;20029;-70
2023/10/27 05:37:05;;;;;;;13.35;12.30;;;;;;;;;;5047301;28;20158;-69
2023/10/27 05:39:31;;;;;;;12.93;11.73;;;;;;;;;;5045855;28;20130;-71
2023/10/27 05:41:56;;;;;;;12.50;11.60;;;;;;;;;;5051110;28;20047;-70
2023/10/27 05:44:22;;;;;;;13.10;11.98;;;;;;;;;;5043034;28;20041;-68
2023/10/27 05:46:47;;;;;;;13.45;12.25;;;;;;;;;;5050876;28;20394;-69
2023/10/27 05:49:13;;;;;;;12.60;11.50;;;;;;;;;;5050072;28;20048;-68
2023/10/27 05:51:38;;;;;;;12.45;11.43;;;;;;;;;;5049096;28;20041;-69
2023/10/27 05:54:07;;;;;;;13.60;12.07;;;;;;;;;;5059444;28;20048;-68
2023/10/27 05:56:33;;;;;;;13.00;11.77;;;;;;;;;;5051722;28;20043;-69
2023/10/27 05:58:59;;;;;;;12.32;11.52;;;;;;;;;;5044831;28;20033;-68
2023/10/27 06:01:25;;;;;;;12.95;11.85;;;;;;;;;;5042391;28;20109;-69
2023/10/27 06:03:53;;;;;;;13.35;12.38;;;;;;;;;;5047582;28;20127;-67
2023/10/27 06:06:18;;;;;;;12.82;11.63;;;;;;;;;;5045483;28;20029;-68
2023/10/27 06:08:46;;;;;;;14.18;12.23;;;;;;;;;;5048366;28;20044;-70
2023/10/27 06:11:13;;;;;;;15.20;13.10;;;;;;;;;;5026850;28;20608;-72
2023/10/27 06:13:39;;;;;;;13.32;12.45;;;;;;;;;;5039550;28;20040;-66
2023/10/27 06:16:06;;;;;;;13.90;12.90;;;;;;;;;;5041074;28;20043;-67
2023/10/27 06:18:32;;;;;;;13.80;12.80;;;;;;;;;;5046951;28;20119;-69
2023/10/27 06:20:57;;;;;;;13.88;12.88;;;;;;;;;;5046421;28;20479;-68
2023/10/27 06:23:24;;;;;;;15.15;13.75;;;;;;;;;;5042840;28;20039;-68
2023/10/27 06:25:50;;;;;;;13.50;12.48;;;;;;;;;;5051983;28;20681;-68
2023/10/27 06:28:15;;;;;;;14.38;13.10;;;;;;;;;;5040409;28;20120;-67
2023/10/27 06:30:41;;;;;;;13.93;12.93;;;;;;;;;;5043431;28;20504;-70
2023/10/27 06:33:06;;;;;;;13.32;12.27;;;;;;;;;;5041997;28;20036;-69
2023/10/27 06:35:32;;;;;;;13.43;12.27;;;;;;;;;;4999959;28;20124;-67
2023/10/27 06:37:58;;;;;;;12.95;12.05;;;;;;;;;;5015650;28;20093;-67
2023/10/27 06:40:24;;;;;;;13.70;12.60;;;;;;;;;;5027991;28;20048;-68
2023/10/27 06:42:49;;;;;;;12.77;11.88;;;;;;;;;;5045666;28;20898;-68
2023/10/27 06:45:15;;;;;;;13.45;12.45;;;;;;;;;;5041744;28;20035;-70
2023/10/27 06:47:41;;;;;;;13.55;12.32;;;;;;;;;;5022443;28;20040;-70
2023/10/27 06:50:07;;;;;;;13.27;12.27;;;;;;;;;;5040398;28;20036;-71
2023/10/27 06:52:34;;;;;;;13.45;12.43;;;;;;;;;;5044738;28;20095;-70
2023/10/27 06:55:00;;;;;;;12.70;11.80;;;;;;;;;;5043585;28;20051;-70
2023/10/27 06:57:26;;;;;;;12.70;11.80;;;;;;;;;;5037949;28;20040;-74
2023/10/27 06:59:55;;;;;;;13.23;12.02;;;;;;;;;;5041362;28;20029;-70
2023/10/27 07:02:20;;;;;;;13.00;11.95;;;;;;;;;;5048606;28;20033;-69
2023/10/27 07:04:46;;;;;;;13.18;11.98;;;;;;;;;;5044308;28;20355;-68
2023/10/27 07:07:12;;;;;;;11.90;11.10;;;;;;;;;;5047025;28;20028;-68
2023/10/27 07:09:38;;;;;;;12.23;11.48;;;;;;;;;;5045068;28;20052;-73
2023/10/27 07:12:05;;;;;;;12.45;11.45;;;;;;;;;;5046673;28;20544;-71
2023/10/27 07:14:30;;;;;;;12.82;11.93;;;;;;;;;;5047644;28;20547;-70
2023/10/27 07:16:59;;;;;;;12.18;11.43;;;;;;;;;;5043801;28;20033;-72
2023/10/27 07:19:25;;;;;;;11.90;11.13;;;;;;;;;;5030098;28;20112;-71
2023/10/27 07:21:51;;;;;;;12.48;11.57;;;;;;;;;;5041818;28;20056;-71
2023/10/27 07:24:17;;;;;;;12.10;11.30;;;;;;;;;;5041693;28;20081;-72
2023/10/27 07:26:42;;;;;;;12.35;11.50;;;;;;;;;;5046807;28;20027;-71
2023/10/27 07:29:08;;;;;;;12.20;11.23;;;;;;;;;;5041446;28;20516;-70
2023/10/27 07:31:34;;;;;;;12.18;11.48;;;;;;;;;;5044221;28;20509;-73
2023/10/27 07:33:59;;;;;;;12.60;11.48;;;;;;;;;;5050650;28;20056;-71
2023/10/27 07:36:25;;;;;;;12.20;11.40;;;;;;;;;;5045243;28;20028;-71
2023/10/27 07:38:51;;;;;;;11.98;11.00;;;;;;;;;;5044634;28;20033;-70
2023/10/27 07:41:17;;;;;;;12.30;11.60;;;;;;;;;;5022385;28;20029;-71
2023/10/27 07:43:42;;;;;;;11.98;11.27;;;;;;;;;;5047750;28;20140;-70
2023/10/27 07:46:08;;;;;;;11.90;11.20;;;;;;;;;;5038723;28;20075;-70
2023/10/27 07:48:33;;;;;;;11.88;11.18;;;;;;;;;;5041776;28;20154;-71
2023/10/27 07:51:00;;;;;;;11.50;10.80;;;;;;;;;;5044648;28;20032;-72
2023/10/27 07:53:27;;;;;;;11.77;11.07;;;;;;;;;;5041770;28;20040;-71
2023/10/27 07:55:53;;;;;;;11.10;10.50;;;;;;;;;;5030393;28;20099;-72
2023/10/27 07:58:21;;;;;;;11.45;10.75;;;;;;;;;;5040630;28;20635;-69
2023/10/27 08:00:47;;;;;;;13.65;12.52;;;;;;;;;;5050771;28;20039;-69
2023/10/27 08:03:13;;;;;;;11.57;10.68;;;;;;;;;;5043271;28;20036;-70
2023/10/27 08:05:38;;;;;;;11.15;10.55;;;;;;;;;;5036309;28;20135;-75
2023/10/27 08:08:04;;;;;;;11.05;10.45;;;;;;;;;;5042080;28;20098;-75
2023/10/27 08:10:30;;;;;;;11.15;10.50;;;;;;;;;;5044958;28;20401;-71
2023/10/27 08:12:56;;;;;;;10.68;10.02;;;;;;;;;;5044580;28;20708;-73
2023/10/27 08:15:23;;;;;;;11.50;10.60;;;;;;;;;;5043122;28;20029;-73
2023/10/27 08:17:49;;;;;;;11.25;10.30;;;;;;;;;;5040890;28;20857;-70
2023/10/27 08:20:16;;;;;;;11.80;11.00;;;;;;;;;;5047629;28;20124;-69
2023/10/27 08:22:43;;;;;;;10.75;10.15;;;;;;;;;;5028202;28;20028;-72
2023/10/27 08:25:09;;;;;;;11.90;11.20;;;;;;;;;;5007380;28;20033;-72
2023/10/27 08:27:35;;;;;;;11.32;10.73;;;;;;;;;;5043986;28;20070;-73
2023/10/27 08:30:02;;;;;;;12.20;11.50;;;;;;;;;;5051409;28;20051;-73
2023/10/27 08:32:27;;;;;;;11.63;10.95;;;;;;;;;;5039217;28;20115;-71
2023/10/27 08:34:53;;;;;;;11.20;10.50;;;;;;;;;;5043894;28;20451;-73
2023/10/27 08:37:18;;;;;;;11.68;11.07;;;;;;;;;;5062803;28;20100;-71
2023/10/27 08:39:45;;;;;;;11.52;10.50;;;;;;;;;;5067175;28;20044;-72
2023/10/27 08:42:10;;;;;;;11.55;10.85;;;;;;;;;;5064049;28;20101;-74
2023/10/27 08:44:41;;;;;;;11.25;10.60;;;;;;;;;;5057778;28;20060;-70
2023/10/27 08:47:07;;;;;;;11.32;10.63;;;;;;;;;;5047629;28;20037;-74
2023/10/27 08:49:33;;;;;;;11.35;10.63;;;;;;;;;;5045565;28;20115;-73
2023/10/27 08:52:02;;;;;;;10.63;10.02;;;;;;;;;;5045554;28;20132;-73
2023/10/27 08:54:31;;;;;;;10.90;10.30;;;;;;;;;;5034589;28;20040;-70
2023/10/27 08:56:56;;;;;;;10.77;10.18;;;;;;;;;;5034869;28;20055;-71
2023/10/27 08:59:23;;;;;;;11.15;10.55;;;;;;;;;;5040645;28;20485;-68
2023/10/27 09:01:49;;;;;;;10.80;10.20;;;;;;;;;;5049944;28;20056;-68
2023/10/27 09:04:19;;;;;;;10.77;10.18;;;;;;;;;;5042019;28;20114;-67
2023/10/27 09:06:44;;;;;;;10.93;10.32;;;;;;;;;;5045861;28;20113;-69
2023/10/27 09:09:10;;;;;;;11.00;10.40;;;;;;;;;;5043789;28;20037;-68
2023/10/27 09:11:41;;;;;;;11.73;11.02;;;;;;;;;;5036887;28;20087;-68
2023/10/27 09:14:22;;;;;;;11.70;11.10;;;;;;;;;;5047623;28;20045;-68
2023/10/27 09:16:48;;;;;;;12.30;11.52;;;;;;;;;;5026973;28;20032;-70
2023/10/27 09:19:18;;;;;;;11.07;10.48;;;;;;;;;;5042880;28;21123;-69
2023/10/27 09:21:45;;;;;;;11.98;11.27;;;;;;;;;;5040839;28;20733;-70
2023/10/27 09:24:11;;;;;;;11.98;11.20;;;;;;;;;;5049359;28;20059;-69
2023/10/27 09:26:46;;;;;;;12.13;11.32;;;;;;;;;;5052068;28;20081;-67
2023/10/27 09:29:12;;;;;;;12.50;11.50;;;;;;;;;;5031313;28;20024;-69
2023/10/27 09:31:38;;;;;;;12.15;11.35;;;;;;;;;;4155864;28;10000965;-69
2023/10/27 09:34:24;;;;;;;12.05;11.30;;;;;;;;;;5040186;28;20587;-69
2023/10/27 09:36:58;;;;;;;12.10;11.40;;;;;;;;;;5042552;28;20518;-70
2023/10/27 09:39:24;;;;;;;11.82;10.90;;;;;;;;;;5039222;28;20127;-68
2023/10/27 09:41:59;;;;;;;11.73;11.02;;;;;;;;;;5040747;28;20041;-69
2023/10/27 09:44:35;;;;;;;11.93;11.23;;;;;;;;;;5031638;28;20091;-69
2023/10/27 09:47:06;;;;;;;12.30;11.40;;;;;;;;;;5046370;28;20028;-69
2023/10/27 09:49:35;;;;;;;11.93;11.23;;;;;;;;;;5033961;28;20033;-70
2023/10/27 09:52:00;;;;;;;11.85;10.82;;;;;;;;;;5045491;28;20268;-70
2023/10/27 09:54:32;;;;;;;11.88;11.18;;;;;;;;;;5032911;28;20032;-69
2023/10/27 09:57:04;;;;;;;12.32;11.35;;;;;;;;;;5039898;28;20063;-72
2023/10/27 09:59:30;;;;;;;11.73;11.02;;;;;;;;;;5031345;28;20043;-71
2023/10/27 10:02:05;;;;;;;11.60;10.80;;;;;;;;;;5042861;28;20810;-69
2023/10/27 10:04:52;;;;;;;11.32;10.55;;;;;;;;;;5041232;28;20040;-69
2023/10/27 10:07:28;;;;;;;11.80;10.90;;;;;;;;;;5038581;28;20041;-73
2023/10/27 10:09:53;;;;;;;13.00;12.07;;;;;;;;;;4162760;28;10001762;-68
2023/10/27 10:12:19;;;;;;;12.20;11.10;;;;;;;;;;5036501;28;20137;-71
2023/10/27 10:14:49;;;;;;;11.45;10.75;;;;;;;;;;5045904;28;20614;-69
2023/10/27 10:17:37;;;;;;;10.52;9.93;;;;;;;;;;4994204;28;20112;-69
2023/10/27 10:20:04;;;;;;;11.73;10.85;;;;;;;;;;5040918;28;20040;-71
2023/10/27 10:22:39;;;;;;;11.40;10.70;;;;;;;;;;5035053;28;20119;-72
2023/10/27 10:25:25;;;;;;;12.02;10.80;;;;;;;;;;5044860;28;20147;-70
2023/10/27 10:28:09;;;;;;;12.20;11.20;;;;;;;;;;5043533;28;20043;-69
2023/10/27 10:30:38;;;;;;;12.20;11.43;;;;;;;;;;5044073;28;20335;-73
2023/10/27 10:33:28;;;;;;;11.40;10.60;;;;;;;;;;5048349;28;20400;-72
2023/10/27 10:36:22;;;;;;;11.57;10.60;;;;;;;;;;5053879;28;20049;-68
2023/10/27 10:38:52;;;;;;;11.80;11.00;;;;;;;;;;5058723;28;20083;-71
2023/10/27 10:41:18;;;;;;;11.48;10.55;;;;;;;;;;5035646;28;20037;-69
2023/10/27 10:44:12;;;;;;;11.77;10.93;;;;;;;;;;5059539;28;20107;-70
2023/10/27 10:46:37;;;;;;;12.02;11.10;;;;;;;;;;5054696;28;20147;-70
2023/10/27 10:49:03;;;;;;;12.15;11.05;;;;;;;;;;5054765;28;20112;-74
2023/10/27 10:51:36;;;;;;;11.35;10.30;;;;;;;;;;5052915;28;20417;-67
2023/10/27 10:54:02;;;;;;;11.50;10.63;;;;;;;;;;5051394;28;20048;-74
2023/10/27 10:56:28;;;;;;;11.13;9.70;;;;;;;;;;5050307;28;20397;-71
2023/10/27 10:58:54;;;;;;;10.52;9.82;;;;;;;;;;5040634;28;20036;-70
2023/10/27 11:01:21;;;;;;;11.18;10.45;;;;;;;;;;5050346;28;20401;-72
2023/10/27 11:03:49;;;;;;;10.63;9.93;;;;;;;;;;5051686;28;20098;-72
2023/10/27 11:06:18;;;;;;;10.82;10.13;;;;;;;;;;5049980;28;20518;-72
2023/10/27 11:08:45;;;;;;;;;;;;;;;;;;5052796;28;20148;-70
2023/10/27 11:11:16;;;;;;;11.60;10.70;;;;;;;;;;5052541;28;19919;-70
2023/10/27 11:13:45;;;;;;;11.02;10.23;;;;;;;;;;5050833;28;20056;-69
2023/10/27 11:16:22;;;;;;;11.77;10.88;;;;;;;;;;5052301;28;20035;-70
2023/10/27 11:18:59;;;;;;;10.65;9.80;;;;;;;;;;5050200;28;20892;-72
2023/10/27 11:21:27;;;;;;;10.98;10.15;;;;;;;;;;5055166;28;20522;-74
2023/10/27 11:23:54;;;;;;;10.18;9.40;;;;;;;;;;5045041;28;20036;-72
2023/10/27 11:26:22;;;;;;;10.95;9.98;;;;;;;;;;5045349;28;20064;-74
2023/10/27 11:28:49;;;;;;;11.15;10.15;;;;;;;;;;5047693;28;20044;-72
2023/10/27 11:31:29;;;;;;;11.60;10.70;;;;;;;;;;5046769;28;20035;-72
2023/10/27 11:33:56;;;;;;;11.43;10.55;;;;;;;;;;5047320;28;20025;-72
2023/10/27 11:36:22;;;;;;;11.65;10.95;;;;;;;;;;5051999;28;20039;-70
2023/10/27 11:38:47;;;;;;;12.00;11.20;;;;;;;;;;5052482;28;20025;-71
2023/10/27 11:41:13;;;;;;;11.70;10.80;;;;;;;;;;5045514;28;20158;-71
2023/10/27 11:43:40;;;;;;;11.15;10.15;;;;;;;;;;5048061;28;20029;-71
2023/10/27 11:46:13;;;;;;;10.43;9.63;;;;;;;;;;5052595;28;20036;-69
2023/10/27 11:48:39;;;;;;;11.00;10.20;;;;;;;;;;5043312;28;20055;-72
2023/10/27 11:51:06;;;;;;;11.57;10.82;;;;;;;;;;5049062;28;20417;-72
2023/10/27 11:53:34;;;;;;;11.25;10.30;;;;;;;;;;5051868;28;20436;-71
2023/10/27 11:56:00;;;;;;;11.80;10.90;;;;;;;;;;5048958;28;20040;-73
2023/10/27 11:58:26;;;;;;;11.80;10.90;;;;;;;;;;5044930;28;20039;-70
2023/10/27 12:00:52;;;;;;;11.35;10.55;;;;;;;;;;5047348;28;20041;-72
2023/10/27 12:03:18;;;;;;;11.35;10.55;;;;;;;;;;5045874;28;20433;-69
2023/10/27 12:05:43;;;;;;;11.18;10.27;;;;;;;;;;5051345;28;20457;-72
2023/10/27 12:08:09;;;;;;;11.10;10.40;;;;;;;;;;5047422;28;20136;-69
2023/10/27 12:10:34;;;;;;;11.15;10.32;;;;;;;;;;5051373;28;20037;-71
2023/10/27 12:13:06;;;;;;;10.43;9.73;;;;;;;;;;5047334;28;20399;-71
2023/10/27 12:15:36;;;;;;;11.02;10.23;;;;;;;;;;5046335;28;20037;-71
2023/10/27 12:18:06;;;;;;;;;;;;;;;;;;5045697;28;20047;-73
2023/10/27 12:20:34;;;;;;;10.60;9.98;;;;;;;;;;5029296;28;20413;-73
2023/10/27 12:22:59;;;;;;;10.90;10.20;;;;;;;;;;5047752;28;20086;-72
2023/10/27 12:25:26;;;;;;;10.88;10.10;;;;;;;;;;5042476;28;20025;-72
2023/10/27 12:27:51;;;;;;;11.05;10.20;;;;;;;;;;5049142;28;20033;-70
2023/10/27 12:30:17;;;;;;;10.88;10.00;;;;;;;;;;5036170;28;20086;-72
2023/10/27 12:32:44;;;;;;;11.30;10.50;;;;;;;;;;5041434;28;20041;-72
2023/10/27 12:35:11;;;;;;;11.48;10.63;;;;;;;;;;5043996;28;20044;-72
2023/10/27 12:37:36;;;;;;;10.45;9.75;;;;;;;;;;5040990;28;20032;-72
2023/10/27 12:40:06;;;;;;;12.27;11.13;;;;;;;;;;5030460;28;20056;-73
2023/10/27 12:42:31;;;;;;;12.38;11.35;;;;;;;;;;5039976;28;20070;-72
2023/10/27 12:44:58;;;;;;;12.57;11.38;;;;;;;;;;5047274;28;20037;-72
2023/10/27 12:47:23;;;;;;;13.55;12.13;;;;;;;;;;5041056;28;20037;-72
2023/10/27 12:49:49;;;;;;;11.90;10.70;;;;;;;;;;5042894;28;20037;-71
2023/10/27 12:52:15;;;;;;;11.10;10.30;;;;;;;;;;5039701;28;20801;-71
2023/10/27 12:54:41;;;;;;;10.00;9.40;;;;;;;;;;5049583;28;20028;-71
2023/10/27 12:57:06;;;;;;;10.40;9.60;;;;;;;;;;5048843;28;20235;-71
2023/10/27 12:59:32;;;;;;;11.10;10.13;;;;;;;;;;5045145;28;20090;-71
2023/10/27 13:01:58;;;;;;;10.70;10.00;;;;;;;;;;5032205;28;20044;-70
2023/10/27 13:04:24;;;;;;;10.70;10.00;;;;;;;;;;5043993;28;20486;-72
2023/10/27 13:06:50;;;;;;;10.50;9.57;;;;;;;;;;5041367;28;20135;-71
2023/10/27 13:09:18;;;;;;;10.32;9.63;;;;;;;;;;5039961;28;20168;-70
2023/10/27 13:11:43;;;;;;;9.80;9.10;;;;;;;;;;5048685;28;20032;-69
2023/10/27 13:14:11;;;;;;;10.70;10.00;;;;;;;;;;5041193;28;20095;-70
2023/10/27 13:16:40;;;;;;;10.30;9.57;;;;;;;;;;5042640;28;20041;-71
2023/10/27 13:19:07;;;;;;;10.25;9.55;;;;;;;;;;5046758;28;20039;-72
2023/10/27 13:21:35;;;;;;;10.30;9.70;;;;;;;;;;5045032;28;20037;-70
2023/10/27 13:24:03;;;;;;;10.88;10.10;;;;;;;;;;5041668;28;20045;-70
2023/10/27 13:26:32;;;;;;;10.48;9.85;;;;;;;;;;5038817;28;20094;-70
2023/10/27 13:28:58;;;;;;;10.13;9.53;;;;;;;;;;5043084;28;20033;-71
2023/10/27 13:31:24;;;;;;;10.30;9.60;;;;;;;;;;5047967;28;20325;-71
2023/10/27 13:33:50;;;;;;;10.63;9.75;;;;;;;;;;5048599;28;20036;-71
2023/10/27 13:36:15;;;;;;;10.68;9.77;;;;;;;;;;5044898;28;20036;-70
2023/10/27 13:38:41;;;;;;;9.90;9.30;;;;;;;;;;5042317;28;20090;-69
2023/10/27 13:41:22;;;;;;;9.95;9.35;;;;;;;;;;5043420;28;20799;-69
2023/10/27 13:43:48;;;;;;;11.00;10.30;;;;;;;;;;5045665;28;20112;-71
2023/10/27 13:46:17;;;;;;;10.35;9.60;;;;;;;;;;5042832;28;20120;-71
2023/10/27 13:48:46;;;;;;;10.70;9.90;;;;;;;;;;5046841;28;20028;-71
2023/10/27 13:51:16;;;;;;;10.32;9.50;;;;;;;;;;5049211;28;20628;-71
2023/10/27 13:53:42;;;;;;;11.07;10.23;;;;;;;;;;5043421;28;20064;-71
2023/10/27 13:56:12;;;;;;;11.13;10.40;;;;;;;;;;5041502;28;20092;-71
2023/10/27 13:58:44;;;;;;;10.65;9.95;;;;;;;;;;5042139;28;20331;-71
2023/10/27 14:01:10;;;;;;;10.15;9.55;;;;;;;;;;5043517;28;20048;-71
2023/10/27 14:03:36;;;;;;;10.88;10.10;;;;;;;;;;5032927;28;20036;-71
2023/10/27 14:06:02;;;;;;;10.90;10.20;;;;;;;;;;5042329;28;20045;-71
2023/10/27 14:08:31;;;;;;;10.35;9.75;;;;;;;;;;5036927;28;20072;-71
2023/10/27 14:10:57;;;;;;;10.55;9.73;;;;;;;;;;5039247;28;20136;-70
2023/10/27 14:13:24;;;;;;;11.05;10.30;;;;;;;;;;5036993;28;20052;-71
2023/10/27 14:15:49;;;;;;;10.60;9.90;;;;;;;;;;5030819;28;20117;-71
2023/10/27 14:18:15;;;;;;;10.40;9.80;;;;;;;;;;5040337;28;20119;-71